createdAt,value
2022-10-07T00:01:38.109Z,8.55
2022-10-07T00:04:04.725Z,6.00
2022-10-07T00:06:31.362Z,5.57
2022-10-07T00:08:59.495Z,7.72
2022-10-07T00:11:27.257Z,6.15
2022-10-07T00:13:56.024Z,7.07
2022-10-07T00:16:25.112Z,6.25
2022-10-07T00:18:52.335Z,4.85
2022-10-07T00:21:19.492Z,6.82
2022-10-07T00:23:46.874Z,5.43
2022-10-07T00:26:15.501Z,6.30
2022-10-07T00:28:42.295Z,5.50
2022-10-07T00:31:12.073Z,7.70
2022-10-07T00:33:39.030Z,6.22
2022-10-07T00:36:08.206Z,9.35
2022-10-07T00:38:34.880Z,5.90
2022-10-07T00:41:01.477Z,8.43
2022-10-07T00:43:30.045Z,10.80
2022-10-07T00:45:59.970Z,9.50
2022-10-07T00:48:29.183Z,5.03
2022-10-07T00:50:56.193Z,9.02
2022-10-07T00:53:22.916Z,8.43
2022-10-07T00:55:49.590Z,6.07
2022-10-07T00:58:16.600Z,5.72
2022-10-07T01:00:43.202Z,5.35
2022-10-07T01:03:09.755Z,5.07
2022-10-07T01:05:36.326Z,6.95
2022-10-07T01:08:02.924Z,5.30
2022-10-07T01:10:35.062Z,4.82
2022-10-07T01:13:09.047Z,8.90
2022-10-07T01:15:58.178Z,6.25
2022-10-07T01:18:55.053Z,6.85
2022-10-07T01:21:28.773Z,7.22
2022-10-07T01:24:33.411Z,7.63
2022-10-07T01:27:03.960Z,13.18
2022-10-07T01:29:41.032Z,9.07
2022-10-07T01:32:13.098Z,7.85
2022-10-07T01:34:39.682Z,6.60
2022-10-07T01:37:06.954Z,6.65
2022-10-07T01:39:38.120Z,6.68
2022-10-07T01:42:05.038Z,7.63
2022-10-07T01:44:31.654Z,7.85
2022-10-07T01:46:58.484Z,6.95
2022-10-07T01:49:25.303Z,9.93
2022-10-07T01:52:15.946Z,8.48
2022-10-07T01:57:27.624Z,11.25
2022-10-07T02:00:14.137Z,6.65
2022-10-07T02:02:53.116Z,7.78
2022-10-07T02:08:32.213Z,8.30
2022-10-07T02:11:20.405Z,7.28
2022-10-07T02:14:12.382Z,10.35
2022-10-07T02:17:03.586Z,6.03
2022-10-07T02:19:32.930Z,6.05
2022-10-07T02:22:01.951Z,8.95
2022-10-07T02:24:29.597Z,8.52
2022-10-07T02:26:56.622Z,7.80
2022-10-07T02:29:23.217Z,7.32
2022-10-07T02:31:49.804Z,7.28
2022-10-07T02:34:20.091Z,10.60
2022-10-07T02:36:51.686Z,8.32
2022-10-07T02:39:18.322Z,5.65
2022-10-07T02:41:51.656Z,10.13
2022-10-07T02:44:49.018Z,5.88
2022-10-07T02:47:19.866Z,7.38
2022-10-07T02:49:49.308Z,10.20
2022-10-07T02:52:17.402Z,6.07
2022-10-07T02:54:47.115Z,6.75
2022-10-07T02:57:15.513Z,6.20
2022-10-07T02:59:42.214Z,6.95
2022-10-07T03:02:11.438Z,6.05
2022-10-07T03:04:38.185Z,6.80
2022-10-07T03:07:04.929Z,5.65
2022-10-07T03:09:31.587Z,7.20
2022-10-07T03:11:58.244Z,4.75
2022-10-07T03:14:24.872Z,6.70
2022-10-07T03:16:52.669Z,6.03
2022-10-07T03:19:19.320Z,7.82
2022-10-07T03:21:45.977Z,10.75
2022-10-07T03:24:12.531Z,5.50
2022-10-07T03:26:39.688Z,7.22
2022-10-07T03:29:08.232Z,8.10
2022-10-07T03:31:35.157Z,10.00
2022-10-07T03:34:01.931Z,8.38
2022-10-07T03:36:28.579Z,8.95
2022-10-07T03:38:55.588Z,11.00
2022-10-07T03:41:22.359Z,9.20
2022-10-07T03:43:48.928Z,16.70
2022-10-07T03:46:16.686Z,8.52
2022-10-07T03:48:43.265Z,7.93
2022-10-07T03:51:09.842Z,8.98
2022-10-07T03:53:38.301Z,13.13
2022-10-07T03:56:04.999Z,14.07
2022-10-07T03:58:31.598Z,16.45
2022-10-07T04:01:14.995Z,16.58
2022-10-07T04:03:41.928Z,14.05
2022-10-07T04:06:08.665Z,23.77
2022-10-07T04:08:35.388Z,15.18
2022-10-07T04:11:02.337Z,19.35
2022-10-07T04:13:29.142Z,21.63
2022-10-07T04:15:55.878Z,21.23
2022-10-07T04:18:22.926Z,19.77
2022-10-07T04:20:49.570Z,17.02
2022-10-07T04:23:16.448Z,10.25
2022-10-07T04:25:44.347Z,13.43
2022-10-07T04:28:18.849Z,13.55
2022-10-07T04:30:49.095Z,9.60
2022-10-07T04:33:15.681Z,10.00
2022-10-07T04:35:42.932Z,16.38
2022-10-07T04:38:10.249Z,15.20
2022-10-07T04:40:41.014Z,14.35
2022-10-07T04:43:28.955Z,11.25
2022-10-07T04:46:01.410Z,11.77
2022-10-07T04:48:28.049Z,14.80
2022-10-07T04:50:54.771Z,11.05
2022-10-07T04:53:21.780Z,11.65
2022-10-07T04:55:50.056Z,11.73
2022-10-07T04:58:16.969Z,10.95
2022-10-07T05:00:45.250Z,21.02
2022-10-07T05:03:13.048Z,14.65
2022-10-07T05:05:42.197Z,12.43
2022-10-07T05:08:08.849Z,19.15
2022-10-07T05:10:37.036Z,13.95
2022-10-07T05:13:04.388Z,15.57
2022-10-07T05:15:30.981Z,17.58
2022-10-07T05:17:57.583Z,19.85
2022-10-07T05:20:24.175Z,22.83
2022-10-07T05:22:50.767Z,27.63
2022-10-07T05:25:17.456Z,23.00
2022-10-07T05:27:44.355Z,31.42
2022-10-07T05:30:11.854Z,34.47
2022-10-07T05:32:38.521Z,50.20
2022-10-07T05:35:05.542Z,32.65
2022-10-07T05:37:32.357Z,29.08
2022-10-07T05:39:58.971Z,27.85
2022-10-07T05:42:25.535Z,31.98
2022-10-07T05:44:52.192Z,38.35
2022-10-07T05:47:19.709Z,27.75
2022-10-07T05:49:46.525Z,31.83
2022-10-07T05:52:13.153Z,35.88
2022-10-07T05:54:39.758Z,36.95
2022-10-07T05:57:06.360Z,37.42
2022-10-07T05:59:32.941Z,40.08
2022-10-07T06:02:00.328Z,29.25
2022-10-07T06:04:27.479Z,36.50
2022-10-07T06:06:54.103Z,34.45
2022-10-07T06:09:40.634Z,41.45
2022-10-07T06:12:28.367Z,33.42
2022-10-07T06:14:55.116Z,36.67
2022-10-07T06:17:21.750Z,26.83
2022-10-07T06:19:48.414Z,33.45
2022-10-07T06:22:15.083Z,30.15
2022-10-07T06:24:41.744Z,24.65
2022-10-07T06:27:08.326Z,25.33
2022-10-07T06:29:34.939Z,22.60
2022-10-07T06:32:01.886Z,21.52
2022-10-07T06:34:28.501Z,18.48
2022-10-07T06:36:55.108Z,19.20
2022-10-07T06:39:21.674Z,21.58
2022-10-07T06:41:48.858Z,15.45
2022-10-07T06:44:15.431Z,17.50
2022-10-07T06:46:42.030Z,19.55
2022-10-07T06:49:08.615Z,21.02
2022-10-07T06:51:35.174Z,19.48
2022-10-07T06:54:01.975Z,16.77
2022-10-07T06:56:28.973Z,16.73
2022-10-07T06:58:55.633Z,18.17
2022-10-07T07:01:22.503Z,18.02
2022-10-07T07:03:49.165Z,19.75
2022-10-07T07:06:15.807Z,24.50
2022-10-07T07:08:42.607Z,18.30
2022-10-07T07:11:30.698Z,18.58
2022-10-07T07:13:57.485Z,19.42
2022-10-07T07:16:24.461Z,19.30
2022-10-07T07:18:53.029Z,21.40
2022-10-07T07:21:19.899Z,20.92
2022-10-07T07:23:46.468Z,23.70
2022-10-07T07:26:13.471Z,25.42
2022-10-07T07:28:40.342Z,21.08
2022-10-07T07:31:09.391Z,22.40
2022-10-07T07:33:38.321Z,26.90
2022-10-07T07:36:15.917Z,22.23
2022-10-07T07:38:43.597Z,27.38
2022-10-07T07:41:10.881Z,24.90
2022-10-07T07:43:37.464Z,24.83
2022-10-07T07:46:04.970Z,26.05
2022-10-07T07:48:31.662Z,33.33
2022-10-07T07:50:58.324Z,23.15
2022-10-07T07:53:25.089Z,30.90
2022-10-07T07:55:54.325Z,25.17
2022-10-07T07:58:21.650Z,24.95
2022-10-07T08:01:06.057Z,20.83
2022-10-07T08:03:33.662Z,27.88
2022-10-07T08:06:04.113Z,22.85
2022-10-07T08:08:30.999Z,24.05
2022-10-07T08:10:58.317Z,19.08
2022-10-07T08:13:24.896Z,21.17
2022-10-07T08:15:56.661Z,22.45
2022-10-07T08:18:24.188Z,23.07
2022-10-07T08:20:58.642Z,22.52
2022-10-07T08:23:26.931Z,24.13
2022-10-07T08:25:55.267Z,22.50
2022-10-07T08:28:22.058Z,21.02
2022-10-07T08:30:49.478Z,23.63
2022-10-07T08:33:16.220Z,18.02
2022-10-07T08:35:43.300Z,21.80
2022-10-07T08:38:14.291Z,22.38
2022-10-07T08:40:56.353Z,25.50
2022-10-07T08:43:23.788Z,27.92
2022-10-07T08:45:51.629Z,25.50
2022-10-07T08:48:21.858Z,24.02
2022-10-07T08:50:55.416Z,23.67
2022-10-07T08:53:28.563Z,25.98
2022-10-07T08:55:56.657Z,22.55
2022-10-07T08:59:03.207Z,20.65
2022-10-07T09:01:38.487Z,17.42
2022-10-07T09:04:44.921Z,18.33
2022-10-07T09:07:25.678Z,20.90
2022-10-07T09:10:04.206Z,25.83
2022-10-07T09:12:37.085Z,26.75
2022-10-07T09:15:05.683Z,24.23
2022-10-07T09:17:36.454Z,26.95
2022-10-07T09:20:07.242Z,24.85
2022-10-07T09:22:36.458Z,27.05
2022-10-07T09:25:19.044Z,22.08
2022-10-07T09:27:45.829Z,26.35
2022-10-07T09:30:13.275Z,21.08
2022-10-07T09:32:42.198Z,18.67
2022-10-07T09:35:14.394Z,22.05
2022-10-07T09:37:57.998Z,22.73
2022-10-07T09:40:35.866Z,23.90
2022-10-07T09:43:09.855Z,22.67
2022-10-07T09:45:37.632Z,21.88
2022-10-07T09:48:07.679Z,21.00
2022-10-07T09:50:37.545Z,21.55
2022-10-07T09:53:06.732Z,21.08
2022-10-07T09:55:41.663Z,23.02
2022-10-07T09:58:29.199Z,23.42
2022-10-07T10:00:56.922Z,22.83
2022-10-07T10:03:34.106Z,26.60
2022-10-07T10:06:03.461Z,22.33
2022-10-07T10:08:32.523Z,20.10
2022-10-07T10:11:01.515Z,22.30
2022-10-07T10:13:36.651Z,20.05
2022-10-07T10:16:05.254Z,25.23
2022-10-07T10:18:35.450Z,21.42
2022-10-07T10:21:23.040Z,21.27
2022-10-07T10:23:51.790Z,18.80
2022-10-07T10:26:58.248Z,21.00
2022-10-07T10:29:36.731Z,21.40
2022-10-07T10:32:25.707Z,21.23
2022-10-07T10:35:15.053Z,19.80
2022-10-07T10:38:04.165Z,19.48
2022-10-07T10:40:53.935Z,21.02
2022-10-07T10:46:26.825Z,23.42
2022-10-07T10:49:01.365Z,17.52
2022-10-07T10:51:43.111Z,21.42
2022-10-07T10:54:31.838Z,20.33
2022-10-07T10:57:04.923Z,18.55
2022-10-07T10:59:41.088Z,21.55
2022-10-07T11:02:39.022Z,25.45
2022-10-07T11:05:14.948Z,18.77
2022-10-07T11:07:48.259Z,18.42
2022-10-07T11:10:24.252Z,18.67
2022-10-07T11:12:55.046Z,19.13
2022-10-07T11:15:24.406Z,17.15
2022-10-07T11:17:52.072Z,14.25
2022-10-07T11:20:43.815Z,15.48
2022-10-07T11:23:34.256Z,16.55
2022-10-07T11:26:10.786Z,25.38
2022-10-07T11:28:37.469Z,17.05
2022-10-07T11:31:26.281Z,19.55
2022-10-07T11:34:14.654Z,17.80
2022-10-07T11:36:47.492Z,19.77
2022-10-07T11:39:14.040Z,16.75
2022-10-07T11:42:05.237Z,17.08
2022-10-07T11:44:37.982Z,14.77
2022-10-07T11:47:04.872Z,16.95
2022-10-07T11:49:40.067Z,16.38
2022-10-07T11:52:10.720Z,21.73
2022-10-07T11:54:43.533Z,18.60
2022-10-07T11:57:19.589Z,18.13
2022-10-07T11:59:49.478Z,15.75
2022-10-07T12:02:35.677Z,16.27
2022-10-07T12:05:02.629Z,15.45
2022-10-07T12:07:36.842Z,19.38
2022-10-07T12:15:43.298Z,16.60
2022-10-07T12:20:57.559Z,17.10
2022-10-07T12:26:03.282Z,20.77
2022-10-07T12:33:57.330Z,17.88
2022-10-07T12:36:28.047Z,22.75
2022-10-07T12:39:20.348Z,23.60
2022-10-07T12:41:46.976Z,24.50
2022-10-07T12:44:26.384Z,19.35
2022-10-07T12:46:57.042Z,20.52
2022-10-07T12:49:43.254Z,18.77
2022-10-07T12:52:31.926Z,16.75
2022-10-07T12:55:28.539Z,14.43
2022-10-07T12:58:15.983Z,14.95
2022-10-07T13:00:51.759Z,14.82
2022-10-07T13:03:36.431Z,18.27
2022-10-07T13:06:31.159Z,27.10
2022-10-07T13:09:36.273Z,23.30
2022-10-07T13:12:26.836Z,14.40
2022-10-07T13:15:16.547Z,13.07
2022-10-07T13:17:51.566Z,20.15
2022-10-07T13:20:32.742Z,16.73
2022-10-07T13:23:12.115Z,21.35
2022-10-07T13:25:45.092Z,17.60
2022-10-07T13:28:16.375Z,20.73
2022-10-07T13:30:44.065Z,24.50
2022-10-07T13:33:14.015Z,19.05
2022-10-07T13:35:41.721Z,28.23
2022-10-07T13:38:27.016Z,17.20
2022-10-07T13:41:15.539Z,23.10
2022-10-07T13:43:43.696Z,21.48
2022-10-07T13:46:10.566Z,23.20
2022-10-07T13:48:43.109Z,42.22
2022-10-07T13:51:22.160Z,27.13
2022-10-07T13:53:54.839Z,24.85
2022-10-07T13:58:52.390Z,24.77
2022-10-07T14:01:19.395Z,16.70
2022-10-07T14:07:16.755Z,22.10
2022-10-07T14:09:47.950Z,19.88
2022-10-07T14:15:14.821Z,18.48
2022-10-07T14:17:47.128Z,22.73
2022-10-07T14:20:32.077Z,20.77
2022-10-07T14:23:00.573Z,21.70
2022-10-07T14:25:29.575Z,21.05
2022-10-07T14:30:58.516Z,23.60
2022-10-07T14:33:59.347Z,13.80
2022-10-07T14:36:25.988Z,18.38
2022-10-07T14:38:52.955Z,16.92
2022-10-07T14:41:21.180Z,21.08
2022-10-07T14:43:48.680Z,18.25
2022-10-07T14:46:23.844Z,21.02
2022-10-07T14:48:51.578Z,20.17
2022-10-07T14:51:26.891Z,19.42
2022-10-07T14:53:55.620Z,18.05
2022-10-07T14:56:28.108Z,18.38
2022-10-07T14:58:56.128Z,18.63
2022-10-07T15:01:23.590Z,22.35
2022-10-07T15:03:50.488Z,19.60
2022-10-07T15:06:17.630Z,21.08
2022-10-07T15:08:44.735Z,22.63
2022-10-07T15:11:14.611Z,29.25
2022-10-07T15:13:43.034Z,17.02
2022-10-07T15:16:14.610Z,20.25
2022-10-07T15:18:45.167Z,19.95
2022-10-07T15:21:13.875Z,18.15
2022-10-07T15:23:40.956Z,24.02
2022-10-07T15:26:07.927Z,16.38
2022-10-07T15:28:34.642Z,26.92
2022-10-07T15:31:03.170Z,20.02
2022-10-07T15:33:30.944Z,20.23
2022-10-07T15:35:58.519Z,19.67
2022-10-07T15:38:26.858Z,20.63
2022-10-07T15:40:55.546Z,23.05
2022-10-07T15:43:22.271Z,18.52
2022-10-07T15:45:50.110Z,25.98
2022-10-07T15:48:18.290Z,31.95
2022-10-07T15:50:47.981Z,22.42
2022-10-07T15:53:15.660Z,36.13
2022-10-07T15:55:51.890Z,25.30
2022-10-07T15:58:18.958Z,25.02
2022-10-07T16:00:57.217Z,22.52
2022-10-07T16:03:24.219Z,28.33
2022-10-07T16:05:59.583Z,28.15
2022-10-07T16:08:26.688Z,21.75
2022-10-07T16:10:53.243Z,29.98
2022-10-07T16:13:19.949Z,25.60
2022-10-07T16:16:03.201Z,29.63
2022-10-07T16:18:36.709Z,25.95
2022-10-07T16:21:05.114Z,33.05
2022-10-07T16:23:32.825Z,23.73
2022-10-07T16:26:07.490Z,26.90
2022-10-07T16:28:54.077Z,26.52
2022-10-07T16:31:20.751Z,28.83
2022-10-07T16:33:51.565Z,23.15
2022-10-07T16:36:18.450Z,30.25
2022-10-07T16:38:45.739Z,26.73
2022-10-07T16:41:12.639Z,24.92
2022-10-07T16:43:39.338Z,27.83
2022-10-07T16:46:09.128Z,24.98
2022-10-07T16:48:39.704Z,28.58
2022-10-07T16:51:11.381Z,26.45
2022-10-07T16:53:38.707Z,25.77
2022-10-07T16:56:05.634Z,25.60
2022-10-07T16:58:33.239Z,25.85
2022-10-07T17:01:01.733Z,26.17
2022-10-07T17:03:29.058Z,28.25
2022-10-07T17:05:57.071Z,29.10
2022-10-07T17:08:23.852Z,23.33
2022-10-07T17:10:50.491Z,30.67
2022-10-07T17:13:18.370Z,24.02
2022-10-07T17:15:48.051Z,28.20
2022-10-07T17:18:18.570Z,28.75
2022-10-07T17:20:50.011Z,23.95
2022-10-07T17:23:16.871Z,28.88
2022-10-07T17:25:46.189Z,23.92
2022-10-07T17:28:13.612Z,25.80
2022-10-07T17:30:40.753Z,26.88
2022-10-07T17:33:07.508Z,31.33
2022-10-07T17:35:34.357Z,30.15
2022-10-07T17:38:01.797Z,29.98
2022-10-07T17:40:30.459Z,24.73
2022-10-07T17:42:59.320Z,27.83
2022-10-07T17:45:25.890Z,27.67
2022-10-07T17:47:54.342Z,35.05
2022-10-07T17:50:20.927Z,29.67
2022-10-07T17:52:47.575Z,27.73
2022-10-07T17:55:14.284Z,28.45
2022-10-07T17:57:40.904Z,27.88
2022-10-07T18:00:08.017Z,29.00
2022-10-07T18:02:34.986Z,28.40
2022-10-07T18:05:01.637Z,32.03
2022-10-07T18:07:29.098Z,26.25
2022-10-07T18:09:55.701Z,29.10
2022-10-07T18:12:42.285Z,33.33
2022-10-07T18:15:25.107Z,36.72
2022-10-07T18:17:52.013Z,33.17
2022-10-07T18:20:19.786Z,35.40
2022-10-07T18:22:46.555Z,40.97
2022-10-07T18:25:13.246Z,37.00
2022-10-07T18:27:40.099Z,31.52
2022-10-07T18:30:07.621Z,29.80
2022-10-07T18:32:34.219Z,30.45
2022-10-07T18:35:00.864Z,30.35
2022-10-07T18:37:27.469Z,33.70
2022-10-07T18:39:54.102Z,32.28
2022-10-07T18:42:20.726Z,29.48
2022-10-07T18:44:47.352Z,35.83
2022-10-07T18:47:13.975Z,31.23
2022-10-07T18:49:40.603Z,29.45
2022-10-07T18:52:07.336Z,33.00
2022-10-07T18:54:33.973Z,30.85
2022-10-07T18:57:00.574Z,29.85
2022-10-07T18:59:27.155Z,34.40
2022-10-07T19:01:53.915Z,36.13
2022-10-07T19:04:20.836Z,33.20
2022-10-07T19:06:47.767Z,31.42
2022-10-07T19:09:17.705Z,42.03
2022-10-07T19:11:44.535Z,27.55
2022-10-07T19:14:11.591Z,28.88
2022-10-07T19:16:39.903Z,28.98
2022-10-07T19:19:13.619Z,29.13
2022-10-07T19:21:40.238Z,33.03
2022-10-07T19:24:06.863Z,30.98
2022-10-07T19:26:36.084Z,32.03
2022-10-07T19:29:03.221Z,35.58
2022-10-07T19:31:31.930Z,32.80
2022-10-07T19:34:02.957Z,29.30
2022-10-07T19:36:31.005Z,28.88
2022-10-07T19:38:58.401Z,25.17
2022-10-07T19:41:27.299Z,27.55
2022-10-07T19:43:54.010Z,23.85
2022-10-07T19:46:21.237Z,32.70
2022-10-07T19:48:47.957Z,25.27
2022-10-07T19:51:17.511Z,27.50
2022-10-07T19:53:46.989Z,24.85
2022-10-07T19:56:16.925Z,30.75
2022-10-07T19:58:47.407Z,26.55
2022-10-07T20:01:14.615Z,26.90
2022-10-07T20:03:41.231Z,33.35
2022-10-07T20:06:08.968Z,27.63
2022-10-07T20:08:37.311Z,30.55
2022-10-07T20:11:04.408Z,29.25
2022-10-07T20:13:32.720Z,26.83
2022-10-07T20:16:18.866Z,29.60
2022-10-07T20:18:47.859Z,31.77
2022-10-07T20:21:17.440Z,31.38
2022-10-07T20:23:45.617Z,31.95
2022-10-07T20:26:17.690Z,30.35
2022-10-07T20:28:45.310Z,27.52
2022-10-07T20:31:12.601Z,27.23
2022-10-07T20:33:43.831Z,29.63
2022-10-07T20:36:10.893Z,32.58
2022-10-07T20:38:57.546Z,30.88
2022-10-07T20:41:44.350Z,31.02
2022-10-07T20:44:11.468Z,27.17
2022-10-07T20:46:38.218Z,30.17
2022-10-07T20:49:12.179Z,32.88
2022-10-07T20:51:39.703Z,31.77
2022-10-07T20:54:06.600Z,28.50
2022-10-07T20:56:33.146Z,30.23
2022-10-07T20:58:59.766Z,27.48
2022-10-07T21:01:27.339Z,32.70
2022-10-07T21:03:53.972Z,32.50
2022-10-07T21:06:21.410Z,34.40
2022-10-07T21:08:47.999Z,31.63
2022-10-07T21:11:14.783Z,31.05
2022-10-07T21:13:41.367Z,29.90
2022-10-07T21:16:07.979Z,40.15
2022-10-07T21:18:34.592Z,32.00
2022-10-07T21:21:01.190Z,35.03
2022-10-07T21:23:29.217Z,29.02
2022-10-07T21:25:59.849Z,30.10
2022-10-07T21:28:26.532Z,31.98
2022-10-07T21:30:55.459Z,29.38
2022-10-07T21:33:22.120Z,32.67
2022-10-07T21:35:48.711Z,28.38
2022-10-07T21:38:15.295Z,29.73
2022-10-07T21:40:42.437Z,29.42
2022-10-07T21:43:08.973Z,34.28
2022-10-07T21:45:35.563Z,31.05
2022-10-07T21:48:02.155Z,25.52
2022-10-07T21:50:28.720Z,28.88
2022-10-07T21:52:55.315Z,28.08
2022-10-07T21:55:21.885Z,25.40
2022-10-07T21:57:48.459Z,25.98
2022-10-07T22:00:15.929Z,29.05
2022-10-07T22:02:42.726Z,25.40
2022-10-07T22:05:11.459Z,27.65
2022-10-07T22:07:57.975Z,27.08
2022-10-07T22:10:24.547Z,28.77
2022-10-07T22:12:51.136Z,27.33
2022-10-07T22:15:17.778Z,21.65
2022-10-07T22:17:44.410Z,22.20
2022-10-07T22:20:10.982Z,25.13
2022-10-07T22:22:37.570Z,24.73
2022-10-07T22:25:04.499Z,27.73
2022-10-07T22:27:31.056Z,21.88
2022-10-07T22:29:58.486Z,21.80
2022-10-07T22:32:25.062Z,22.73
2022-10-07T22:35:11.598Z,21.92
2022-10-07T22:37:38.230Z,22.25
2022-10-07T22:40:05.341Z,22.55
2022-10-07T22:42:32.773Z,23.98
2022-10-07T22:44:59.353Z,24.83
2022-10-07T22:47:25.929Z,27.40
2022-10-07T22:49:52.539Z,26.77
2022-10-07T22:52:19.133Z,27.73
2022-10-07T22:54:45.762Z,29.10
2022-10-07T22:57:12.327Z,28.05
2022-10-07T22:59:38.993Z,31.40
2022-10-07T23:02:05.603Z,29.05
2022-10-07T23:04:32.179Z,31.80
2022-10-07T23:06:59.341Z,32.88
2022-10-07T23:09:25.916Z,35.22
2022-10-07T23:11:52.502Z,32.97
2022-10-07T23:14:19.156Z,33.55
2022-10-07T23:16:45.782Z,33.65
2022-10-07T23:19:12.424Z,38.05
2022-10-07T23:21:38.999Z,36.03
2022-10-07T23:24:08.095Z,35.30
2022-10-07T23:26:35.475Z,35.88
2022-10-07T23:29:02.326Z,30.73
2022-10-07T23:31:30.321Z,36.10
2022-10-07T23:33:57.190Z,30.25
2022-10-07T23:36:23.847Z,36.90
2022-10-07T23:38:50.834Z,36.28
2022-10-07T23:41:20.001Z,39.95
2022-10-07T23:43:49.099Z,38.10
2022-10-07T23:46:15.726Z,36.50
2022-10-07T23:48:42.491Z,36.10
2022-10-07T23:51:11.378Z,32.00
2022-10-07T23:53:38.010Z,31.98
2022-10-07T23:56:04.790Z,35.60
2022-10-07T23:58:31.672Z,35.85
